CheckWX is a tool to help pilots better visualize weather data.  It is not intended as a substitute for an official pre-flight weather briefing.

04:43:21 UTC

SASJ TAF
Gobernador Horacio Guzman International Airport
San Salvador de Jujuy, Argentina
TAF SASJ 222300Z 2300/2324 29005KT CAVOK TX23/2318Z TN07/2310Z BECMG 2314/2316 07015KT BECMG 2321/2323 29005KT

Aug-23@
00:00 UTC

Aug-23 @ 00:00 UTC

Aug-23@
14:00 UTC

Aug-23 @ 14:00 UTC

TAF SASJ 222300Z 2300/2324 29005KT CAVOK TX23/2318Z TN07/2310Z
Wind
  • 290° at 5 KTS
Cloud Levels
  • No significant clouds

Aug-23@
14:00 UTC

Aug-23 @ 14:00 UTC

Aug-23@
21:00 UTC

Aug-23 @ 21:00 UTC

BECMG 2314/2316 07015KT

Becoming

Becoming Conditions expected by Fri, Aug 23, 2019 @ 16:00 UTC

Wind
  • 070° at 15 KTS
Cloud Levels
  • No significant clouds

Aug-23@
21:00 UTC

Aug-23 @ 21:00 UTC

Aug-24@
00:00 UTC

Aug-24 @ 00:00 UTC

BECMG 2321/2323 29005KT

Becoming

Becoming Conditions expected by Fri, Aug 23, 2019 @ 23:00 UTC

Wind
  • 290° at 5 KTS
Cloud Levels
  • No significant clouds